createdAt,value
2022-08-28T00:00:32.684Z,2.72
2022-08-28T00:03:00.568Z,2.70
2022-08-28T00:05:31.073Z,2.80
2022-08-28T00:07:59.979Z,2.78
2022-08-28T00:10:28.316Z,2.28
2022-08-28T00:12:57.485Z,2.60
2022-08-28T00:15:35.064Z,2.50
2022-08-28T00:18:04.116Z,2.88
2022-08-28T00:20:33.764Z,2.15
2022-08-28T00:23:02.009Z,2.42
2022-08-28T00:25:30.943Z,2.70
2022-08-28T00:28:05.177Z,2.47
2022-08-28T00:30:42.640Z,3.22
2022-08-28T00:33:14.857Z,2.83
2022-08-28T00:35:43.383Z,3.13
2022-08-28T00:38:12.808Z,3.42
2022-08-28T00:40:44.528Z,4.03
2022-08-28T00:43:41.766Z,3.30
2022-08-28T00:46:19.748Z,3.10
2022-08-28T00:48:48.186Z,3.08
2022-08-28T00:51:37.973Z,2.80
2022-08-28T00:54:07.918Z,4.03
2022-08-28T00:56:38.068Z,3.47
2022-08-28T00:59:09.872Z,2.72
2022-08-28T01:01:39.306Z,2.50
2022-08-28T01:04:07.432Z,2.72
2022-08-28T01:06:36.605Z,2.70
2022-08-28T01:09:05.702Z,2.80
2022-08-28T01:11:33.728Z,2.58
2022-08-28T01:14:03.068Z,2.60
2022-08-28T01:16:33.964Z,2.60
2022-08-28T01:19:07.882Z,2.17
2022-08-28T01:21:47.168Z,3.13
2022-08-28T01:24:18.179Z,2.28
2022-08-28T01:26:46.841Z,2.38
2022-08-28T01:29:14.734Z,2.42
2022-08-28T01:31:43.199Z,2.40
2022-08-28T01:34:13.964Z,2.70
2022-08-28T01:36:42.246Z,1.83
2022-08-28T01:39:18.033Z,2.28
2022-08-28T01:41:48.016Z,2.50
2022-08-28T01:44:18.192Z,3.00
2022-08-28T01:46:46.598Z,2.58
2022-08-28T01:49:14.753Z,2.20
2022-08-28T01:51:43.140Z,2.70
2022-08-28T01:54:11.876Z,2.60
2022-08-28T01:56:42.176Z,2.45
2022-08-28T01:59:12.245Z,2.13
2022-08-28T02:01:40.336Z,2.22
2022-08-28T02:04:08.013Z,2.58
2022-08-28T02:06:36.561Z,2.70
2022-08-28T02:09:13.528Z,2.45
2022-08-28T02:11:46.542Z,2.83
2022-08-28T02:14:15.221Z,2.67
2022-08-28T02:16:42.751Z,3.13
2022-08-28T02:19:10.373Z,2.63
2022-08-28T02:21:38.105Z,2.58
2022-08-28T02:24:05.948Z,2.90
2022-08-28T02:26:33.570Z,3.00
2022-08-28T02:29:01.353Z,3.05
2022-08-28T02:31:29.153Z,2.95
2022-08-28T02:33:56.800Z,3.20
2022-08-28T02:36:24.614Z,2.88
2022-08-28T02:38:56.989Z,2.80
2022-08-28T02:41:25.472Z,3.28
2022-08-28T02:43:53.320Z,2.50
2022-08-28T02:46:20.899Z,2.97
2022-08-28T02:48:48.483Z,2.80
2022-08-28T02:51:16.125Z,3.33
2022-08-28T02:53:43.793Z,3.50
2022-08-28T02:56:12.012Z,2.90
2022-08-28T02:58:40.735Z,2.60
2022-08-28T03:01:11.275Z,3.38
2022-08-28T03:03:41.451Z,2.83
2022-08-28T03:06:12.594Z,2.53
2022-08-28T03:08:42.078Z,3.00
2022-08-28T03:11:10.061Z,3.15
2022-08-28T03:13:37.809Z,2.97
2022-08-28T03:16:05.879Z,3.22
2022-08-28T03:18:33.540Z,3.17
2022-08-28T03:21:01.172Z,2.78
2022-08-28T03:23:29.189Z,4.38
2022-08-28T03:25:59.834Z,2.92
2022-08-28T03:28:30.337Z,3.17
2022-08-28T03:30:58.113Z,3.72
2022-08-28T03:33:26.890Z,3.00
2022-08-28T03:35:55.615Z,2.67
2022-08-28T03:38:25.288Z,2.72
2022-08-28T03:40:53.765Z,2.53
2022-08-28T03:43:24.509Z,2.67
2022-08-28T03:45:58.958Z,3.13
2022-08-28T03:48:28.941Z,2.97
2022-08-28T03:50:56.836Z,3.10
2022-08-28T03:53:27.170Z,2.90
2022-08-28T03:55:56.215Z,3.08
2022-08-28T03:58:24.589Z,3.70
2022-08-28T04:00:52.653Z,3.20
2022-08-28T04:03:20.718Z,2.58
2022-08-28T04:05:48.323Z,2.00
2022-08-28T04:08:17.517Z,3.50
2022-08-28T04:10:45.948Z,3.40
2022-08-28T04:13:14.754Z,2.90
2022-08-28T04:15:42.505Z,3.10
2022-08-28T04:18:10.803Z,2.65
2022-08-28T04:20:38.796Z,2.80
2022-08-28T04:23:08.464Z,2.50
2022-08-28T04:25:36.031Z,2.70
2022-08-28T04:28:04.520Z,2.20
2022-08-28T04:30:32.102Z,2.50
2022-08-28T04:32:59.951Z,2.50
2022-08-28T04:35:27.704Z,2.30
2022-08-28T04:37:58.752Z,2.53
2022-08-28T04:40:26.769Z,2.90
2022-08-28T04:42:54.451Z,2.42
2022-08-28T04:45:22.130Z,2.85
2022-08-28T04:47:49.671Z,3.17
2022-08-28T04:50:17.297Z,3.22
2022-08-28T04:52:44.821Z,2.95
2022-08-28T04:55:12.444Z,2.88
2022-08-28T04:57:39.950Z,2.85
2022-08-28T05:00:10.201Z,3.17
2022-08-28T05:02:38.723Z,3.00
2022-08-28T05:05:06.591Z,2.78
2022-08-28T05:07:34.673Z,2.95
2022-08-28T05:10:02.368Z,2.90
2022-08-28T05:12:30.636Z,3.35
2022-08-28T05:14:58.198Z,3.58
2022-08-28T05:17:25.757Z,2.80
2022-08-28T05:19:54.332Z,2.92
2022-08-28T05:22:21.860Z,3.10
2022-08-28T05:24:49.517Z,2.90
2022-08-28T05:27:17.013Z,2.47
2022-08-28T05:29:44.550Z,3.90
2022-08-28T05:32:12.154Z,3.78
2022-08-28T05:34:39.682Z,4.22
2022-08-28T05:37:08.897Z,3.53
2022-08-28T05:39:36.465Z,4.07
2022-08-28T05:42:04.317Z,3.83
2022-08-28T05:44:31.921Z,3.88
2022-08-28T05:46:59.519Z,3.80
2022-08-28T05:49:28.205Z,3.38
2022-08-28T05:51:55.770Z,3.45
2022-08-28T05:54:23.332Z,3.42
2022-08-28T05:56:50.861Z,4.22
2022-08-28T05:59:18.512Z,3.67
2022-08-28T06:01:48.672Z,3.78
2022-08-28T06:04:24.610Z,4.70
2022-08-28T06:06:52.778Z,4.47
2022-08-28T06:09:28.764Z,3.65
2022-08-28T06:12:02.822Z,4.50
2022-08-28T06:14:31.479Z,3.55
2022-08-28T06:17:00.589Z,3.35
2022-08-28T06:19:30.383Z,3.92
2022-08-28T06:22:00.900Z,5.05
2022-08-28T06:24:29.514Z,4.00
2022-08-28T06:26:59.098Z,4.20
2022-08-28T06:29:28.160Z,4.25
2022-08-28T06:31:59.155Z,4.07
2022-08-28T06:34:28.068Z,3.53
2022-08-28T06:36:55.885Z,3.83
2022-08-28T06:39:23.711Z,3.78
2022-08-28T06:41:51.371Z,3.58
2022-08-28T06:44:20.543Z,3.60
2022-08-28T06:46:50.386Z,4.30
2022-08-28T06:49:18.331Z,4.03
2022-08-28T06:51:45.945Z,3.75
2022-08-28T06:54:18.436Z,3.47
2022-08-28T06:56:50.106Z,4.10
2022-08-28T06:59:17.691Z,3.90
2022-08-28T07:01:45.381Z,3.38
2022-08-28T07:04:14.691Z,3.72
2022-08-28T07:06:46.915Z,3.58
2022-08-28T07:09:15.429Z,3.70
2022-08-28T07:11:48.746Z,3.50
2022-08-28T07:14:16.796Z,3.20
2022-08-28T07:16:44.441Z,3.47
2022-08-28T07:19:13.616Z,3.45
2022-08-28T07:21:43.733Z,3.30
2022-08-28T07:24:14.679Z,3.30
2022-08-28T07:26:43.661Z,3.42
2022-08-28T07:29:11.893Z,3.15
2022-08-28T07:31:44.851Z,2.88
2022-08-28T07:34:14.239Z,3.17
2022-08-28T07:36:42.458Z,3.35
2022-08-28T07:39:12.240Z,2.67
2022-08-28T07:41:42.687Z,3.58
2022-08-28T07:44:31.426Z,3.53
2022-08-28T07:47:04.038Z,3.50
2022-08-28T07:49:34.008Z,3.15
2022-08-28T07:52:02.356Z,3.63
2022-08-28T07:54:29.984Z,2.75
2022-08-28T07:56:57.585Z,2.22
2022-08-28T07:59:25.180Z,2.42
2022-08-28T08:01:53.866Z,1.80
2022-08-28T08:04:23.412Z,1.90
2022-08-28T08:06:57.550Z,1.90
2022-08-28T08:09:27.227Z,2.05
2022-08-28T08:11:56.655Z,1.77
2022-08-28T08:14:25.481Z,2.00
2022-08-28T08:16:53.599Z,2.05
2022-08-28T08:19:21.412Z,1.65
2022-08-28T08:21:55.161Z,1.73
2022-08-28T08:24:26.593Z,1.98
2022-08-28T08:29:31.479Z,1.83
2022-08-28T08:32:06.252Z,1.98
2022-08-28T08:34:42.709Z,2.47
2022-08-28T08:37:12.780Z,2.35
2022-08-28T08:39:42.140Z,2.03
2022-08-28T08:42:33.984Z,1.95
2022-08-28T08:45:05.330Z,2.25
2022-08-28T08:50:35.461Z,1.77
2022-08-28T08:53:09.325Z,1.92
2022-08-28T08:55:52.848Z,1.98
2022-08-28T08:58:24.692Z,1.70
2022-08-28T09:01:23.607Z,2.20
2022-08-28T09:04:00.616Z,2.63
2022-08-28T09:06:55.387Z,1.20
2022-08-28T09:09:43.660Z,2.00
2022-08-28T09:12:31.578Z,1.88
2022-08-28T09:15:14.290Z,1.35
2022-08-28T09:17:52.744Z,1.40
2022-08-28T09:20:32.389Z,1.30
2022-08-28T09:23:02.053Z,1.63
2022-08-28T09:25:51.377Z,1.30
2022-08-28T09:28:32.506Z,1.58
2022-08-28T09:31:20.344Z,1.35
2022-08-28T09:33:51.324Z,1.10
2022-08-28T09:36:23.789Z,1.00
2022-08-28T09:39:38.704Z,1.10
2022-08-28T09:42:40.310Z,1.20
2022-08-28T09:45:21.234Z,1.17
2022-08-28T09:47:58.626Z,1.27
2022-08-28T09:50:31.840Z,1.23
2022-08-28T09:53:21.559Z,1.20
2022-08-28T09:55:55.903Z,1.00
2022-08-28T09:58:37.388Z,1.45
2022-08-28T10:01:19.939Z,1.10
2022-08-28T10:04:08.182Z,1.15
2022-08-28T10:06:37.252Z,0.98
2022-08-28T10:09:10.859Z,1.20
2022-08-28T10:12:11.143Z,1.10
2022-08-28T10:15:07.824Z,1.20
2022-08-28T10:18:18.575Z,1.30
2022-08-28T10:21:05.497Z,1.20
2022-08-28T10:23:58.600Z,1.40
2022-08-28T10:26:51.665Z,1.10
2022-08-28T10:29:38.117Z,1.48
2022-08-28T10:32:11.734Z,1.20
2022-08-28T10:34:51.404Z,1.50
2022-08-28T10:37:57.885Z,1.17
2022-08-28T10:40:36.702Z,1.23
2022-08-28T10:43:15.376Z,1.30
2022-08-28T10:45:43.180Z,1.20
2022-08-28T10:48:19.885Z,1.23
2022-08-28T10:51:01.142Z,1.30
2022-08-28T10:53:35.350Z,1.33
2022-08-28T10:56:15.884Z,1.33
2022-08-28T10:58:45.394Z,1.75
2022-08-28T11:01:32.992Z,1.52
2022-08-28T11:04:06.841Z,1.33
2022-08-28T11:06:41.692Z,1.25
2022-08-28T11:09:24.821Z,1.92
2022-08-28T11:12:02.600Z,2.03
2022-08-28T11:14:39.329Z,1.50
2022-08-28T11:17:22.026Z,1.30
2022-08-28T11:20:07.521Z,1.73
2022-08-28T11:22:41.305Z,1.75
2022-08-28T11:25:57.573Z,1.55
2022-08-28T11:28:27.616Z,1.20
2022-08-28T11:30:58.240Z,2.40
2022-08-28T11:36:20.457Z,1.63
2022-08-28T11:38:54.046Z,1.58
2022-08-28T11:41:39.414Z,1.60
2022-08-28T11:44:09.735Z,1.23
2022-08-28T11:46:39.981Z,1.40
2022-08-28T11:49:26.464Z,2.00
2022-08-28T11:52:21.850Z,1.38
2022-08-28T11:55:12.442Z,1.50
2022-08-28T11:57:52.231Z,1.25
2022-08-28T12:00:38.443Z,1.23
2022-08-28T12:03:15.476Z,1.58
2022-08-28T12:05:49.719Z,1.40
2022-08-28T12:08:44.993Z,1.50
2022-08-28T12:11:40.325Z,1.30
2022-08-28T12:14:14.982Z,1.55
2022-08-28T12:17:01.323Z,1.40
2022-08-28T12:19:52.511Z,1.30
2022-08-28T12:22:39.301Z,1.75
2022-08-28T12:25:23.099Z,1.40
2022-08-28T12:27:52.496Z,1.52
2022-08-28T12:30:29.662Z,1.30
2022-08-28T12:33:07.090Z,1.10
2022-08-28T12:35:34.968Z,1.17
2022-08-28T12:38:05.923Z,1.40
2022-08-28T12:40:50.370Z,1.55
2022-08-28T12:43:35.707Z,1.10
2022-08-28T12:46:19.489Z,1.10
2022-08-28T12:48:52.092Z,1.30
2022-08-28T12:51:28.141Z,1.48
2022-08-28T12:54:01.450Z,1.45
2022-08-28T12:56:36.164Z,1.38
2022-08-28T12:59:22.680Z,1.20
2022-08-28T13:02:01.182Z,1.15
2022-08-28T13:04:34.729Z,1.10
2022-08-28T13:07:17.305Z,1.10
2022-08-28T13:09:52.142Z,1.20
2022-08-28T13:12:55.203Z,1.20
2022-08-28T13:15:50.796Z,1.60
2022-08-28T13:18:40.165Z,1.35
2022-08-28T13:21:33.409Z,1.20
2022-08-28T13:24:20.529Z,1.33
2022-08-28T13:27:08.193Z,1.15
2022-08-28T13:29:36.739Z,1.10
2022-08-28T13:32:08.849Z,1.00
2022-08-28T13:34:39.016Z,1.50
2022-08-28T13:37:46.987Z,1.20
2022-08-28T13:40:44.438Z,1.20
2022-08-28T13:43:08.231Z,1.50
2022-08-28T13:45:44.894Z,1.33
2022-08-28T13:48:14.718Z,1.23
2022-08-28T13:50:46.908Z,1.58
2022-08-28T13:53:16.952Z,1.30
2022-08-28T13:55:45.038Z,1.30
2022-08-28T13:58:14.049Z,1.00
2022-08-28T14:00:45.620Z,0.82
2022-08-28T14:03:31.930Z,1.13
2022-08-28T14:05:59.777Z,0.90
2022-08-28T14:08:27.430Z,1.23
2022-08-28T14:10:55.369Z,1.30
2022-08-28T14:13:26.828Z,1.17
2022-08-28T14:15:56.526Z,1.00
2022-08-28T14:18:25.821Z,1.15
2022-08-28T14:20:53.424Z,1.00
2022-08-28T14:23:21.053Z,1.10
2022-08-28T14:25:49.338Z,1.25
2022-08-28T14:28:18.025Z,1.23
2022-08-28T14:30:48.478Z,1.17
2022-08-28T14:33:19.000Z,1.15
2022-08-28T14:35:49.255Z,1.38
2022-08-28T14:38:17.309Z,1.50
2022-08-28T14:40:45.365Z,1.50
2022-08-28T14:43:14.449Z,1.25
2022-08-28T14:45:47.711Z,1.90
2022-08-28T14:48:17.662Z,1.55
2022-08-28T14:50:48.323Z,1.50
2022-08-28T14:53:17.038Z,1.83
2022-08-28T14:55:47.819Z,1.35
2022-08-28T14:58:17.231Z,1.38
2022-08-28T15:00:48.062Z,1.30
2022-08-28T15:03:17.098Z,1.20
2022-08-28T15:05:45.418Z,1.30
2022-08-28T15:08:16.791Z,1.40
2022-08-28T15:10:44.926Z,1.40
2022-08-28T15:13:13.302Z,1.10
2022-08-28T15:15:43.040Z,1.50
2022-08-28T15:18:11.600Z,1.30
2022-08-28T15:20:41.943Z,1.20
2022-08-28T15:23:10.773Z,1.50
2022-08-28T15:25:38.644Z,1.42
2022-08-28T15:28:06.982Z,1.55
2022-08-28T15:30:35.475Z,1.50
2022-08-28T15:33:03.154Z,1.88
2022-08-28T15:35:30.934Z,1.30
2022-08-28T15:37:58.494Z,1.40
2022-08-28T15:40:45.072Z,1.63
2022-08-28T15:43:12.808Z,1.20
2022-08-28T15:45:41.231Z,1.40
2022-08-28T15:48:10.904Z,1.58
2022-08-28T15:50:40.321Z,1.30
2022-08-28T15:55:37.009Z,1.10
2022-08-28T15:58:13.756Z,1.20
2022-08-28T16:00:42.494Z,1.25
2022-08-28T16:03:10.275Z,1.17
2022-08-28T16:05:40.741Z,1.20
2022-08-28T16:08:10.501Z,1.20
2022-08-28T16:10:38.640Z,1.20
2022-08-28T16:13:06.812Z,1.30
2022-08-28T16:15:35.001Z,1.45
2022-08-28T16:18:02.653Z,1.20
2022-08-28T16:20:30.234Z,1.30
2022-08-28T16:22:58.227Z,1.38
2022-08-28T16:25:25.898Z,1.50
2022-08-28T16:27:53.446Z,1.23
2022-08-28T16:30:23.886Z,1.48
2022-08-28T16:35:22.225Z,1.20
2022-08-28T16:37:50.358Z,1.40
2022-08-28T16:40:18.425Z,1.35
2022-08-28T16:42:51.930Z,1.45
2022-08-28T16:45:20.409Z,1.50
2022-08-28T16:47:49.220Z,1.50
2022-08-28T16:50:17.836Z,1.40
2022-08-28T16:52:48.751Z,1.45
2022-08-28T16:57:45.114Z,1.42
2022-08-28T17:00:13.741Z,1.45
2022-08-28T17:02:42.365Z,1.40
2022-08-28T17:05:12.418Z,1.70
2022-08-28T17:07:40.280Z,1.40
2022-08-28T17:10:12.183Z,1.48
2022-08-28T17:12:40.797Z,1.33
2022-08-28T17:15:09.260Z,1.52
2022-08-28T17:17:39.907Z,1.52
2022-08-28T17:20:29.112Z,1.45
2022-08-28T17:22:57.229Z,1.30
2022-08-28T17:25:25.922Z,1.42
2022-08-28T17:27:53.695Z,1.98
2022-08-28T17:30:21.742Z,1.80
2022-08-28T17:32:51.392Z,1.40
2022-08-28T17:35:19.461Z,1.30
2022-08-28T17:37:47.437Z,1.42
2022-08-28T17:40:17.350Z,1.60
2022-08-28T17:42:47.989Z,1.50
2022-08-28T17:45:15.810Z,1.55
2022-08-28T17:47:43.641Z,1.63
2022-08-28T17:50:12.108Z,1.75
2022-08-28T17:52:40.008Z,1.50
2022-08-28T17:55:08.069Z,1.55
2022-08-28T17:57:35.831Z,1.60
2022-08-28T18:00:08.002Z,1.40
2022-08-28T18:02:40.042Z,1.40
2022-08-28T18:05:08.756Z,1.65
2022-08-28T18:07:36.605Z,1.60
2022-08-28T18:10:06.849Z,1.83
2022-08-28T18:12:34.709Z,1.60
2022-08-28T18:15:03.734Z,1.75
2022-08-28T18:17:31.287Z,1.90
2022-08-28T18:20:00.685Z,1.38
2022-08-28T18:22:29.898Z,1.77
2022-08-28T18:24:57.919Z,1.67
2022-08-28T18:27:26.610Z,2.35
2022-08-28T18:29:54.477Z,2.60
2022-08-28T18:32:22.044Z,2.08
2022-08-28T18:34:49.792Z,1.60
2022-08-28T18:37:17.578Z,1.70
2022-08-28T18:39:45.134Z,1.63
2022-08-28T18:42:13.108Z,1.83
2022-08-28T18:44:40.662Z,1.70
2022-08-28T18:47:08.245Z,1.60
2022-08-28T18:49:35.828Z,2.00
2022-08-28T18:52:03.677Z,1.92
2022-08-28T18:54:31.341Z,1.85
2022-08-28T18:57:04.028Z,2.03
2022-08-28T18:59:33.280Z,2.33
2022-08-28T19:02:01.703Z,2.35
2022-08-28T19:04:29.704Z,2.65
2022-08-28T19:06:57.314Z,2.17
2022-08-28T19:09:32.140Z,2.10
2022-08-28T19:12:00.628Z,2.70
2022-08-28T19:14:28.395Z,2.20
2022-08-28T19:16:56.110Z,2.60
2022-08-28T19:19:24.200Z,2.63
2022-08-28T19:21:52.053Z,2.22
2022-08-28T19:24:22.329Z,2.33
2022-08-28T19:26:49.906Z,2.40
2022-08-28T19:29:17.624Z,2.15
2022-08-28T19:31:45.228Z,2.08
2022-08-28T19:34:13.047Z,2.58
2022-08-28T19:36:41.833Z,2.17
2022-08-28T19:39:09.477Z,2.17
2022-08-28T19:41:37.519Z,2.50
2022-08-28T19:44:05.941Z,2.17
2022-08-28T19:46:36.279Z,2.60
2022-08-28T19:49:05.884Z,2.60
2022-08-28T19:51:35.294Z,2.45
2022-08-28T19:54:03.823Z,2.45
2022-08-28T19:56:33.840Z,2.75
2022-08-28T19:59:03.589Z,2.60
2022-08-28T20:01:35.236Z,2.58
2022-08-28T20:04:04.073Z,2.55
2022-08-28T20:06:33.021Z,2.28
2022-08-28T20:09:02.457Z,2.25
2022-08-28T20:11:31.093Z,2.20
2022-08-28T20:14:04.233Z,2.30
2022-08-28T20:16:39.542Z,2.63
2022-08-28T20:19:10.483Z,2.72
2022-08-28T20:21:40.293Z,2.60
2022-08-28T20:24:17.670Z,2.57
2022-08-28T20:26:45.486Z,3.05
2022-08-28T20:29:14.097Z,2.58
2022-08-28T20:31:44.986Z,2.70
2022-08-28T20:34:12.872Z,2.40
2022-08-28T20:36:40.666Z,2.42
2022-08-28T20:39:09.631Z,3.20
2022-08-28T20:41:38.869Z,3.00
2022-08-28T20:44:08.160Z,4.32
2022-08-28T20:46:40.963Z,3.40
2022-08-28T20:49:11.415Z,2.20
2022-08-28T20:51:59.159Z,3.00
2022-08-28T20:54:38.742Z,3.08
2022-08-28T20:57:08.944Z,2.63
2022-08-28T20:59:40.214Z,3.17
2022-08-28T21:02:21.125Z,2.63
2022-08-28T21:04:49.178Z,2.95
2022-08-28T21:07:19.939Z,2.78
2022-08-28T21:10:04.208Z,2.67
2022-08-28T21:12:36.869Z,2.75
2022-08-28T21:15:09.781Z,3.30
2022-08-28T21:17:37.400Z,3.63
2022-08-28T21:20:09.329Z,4.38
2022-08-28T21:22:39.163Z,2.55
2022-08-28T21:25:08.524Z,4.30
2022-08-28T21:27:37.052Z,4.13
2022-08-28T21:30:07.158Z,4.20
2022-08-28T21:32:36.161Z,4.10
2022-08-28T21:35:08.890Z,4.00
2022-08-28T21:37:37.147Z,3.50
2022-08-28T21:40:08.164Z,4.05
2022-08-28T21:42:36.165Z,3.60
2022-08-28T21:45:11.241Z,4.47
2022-08-28T21:47:41.081Z,4.05
2022-08-28T21:50:09.366Z,4.00
2022-08-28T21:52:37.193Z,3.72
2022-08-28T21:55:09.403Z,3.63
2022-08-28T21:57:37.646Z,3.58
2022-08-28T22:00:25.567Z,3.80
2022-08-28T22:02:53.316Z,4.40
2022-08-28T22:05:21.452Z,3.30
2022-08-28T22:07:49.012Z,4.05
2022-08-28T22:10:16.607Z,4.00
2022-08-28T22:12:44.192Z,4.05
2022-08-28T22:15:12.174Z,3.90
2022-08-28T22:17:39.777Z,3.58
2022-08-28T22:20:08.087Z,3.78
2022-08-28T22:22:54.255Z,4.78
2022-08-28T22:25:22.022Z,6.40
2022-08-28T22:27:49.965Z,16.13
2022-08-28T22:30:17.824Z,14.63
2022-08-28T22:32:46.015Z,9.32
2022-08-28T22:35:13.770Z,7.35
2022-08-28T22:37:41.461Z,6.15
2022-08-28T22:40:13.699Z,5.10
2022-08-28T22:42:42.623Z,4.93
2022-08-28T22:45:10.774Z,20.23
2022-08-28T22:47:39.627Z,14.50
2022-08-28T22:50:07.502Z,7.75
2022-08-28T22:52:35.432Z,10.98
2022-08-28T22:55:04.553Z,6.47
2022-08-28T22:57:34.297Z,5.38
2022-08-28T23:00:03.934Z,5.88
2022-08-28T23:02:31.776Z,5.70
2022-08-28T23:04:59.509Z,6.32
2022-08-28T23:07:27.107Z,5.43
2022-08-28T23:09:54.673Z,5.72
2022-08-28T23:12:22.286Z,5.70
2022-08-28T23:14:50.325Z,5.85
2022-08-28T23:17:18.580Z,5.57
2022-08-28T23:19:48.200Z,4.93
2022-08-28T23:22:17.076Z,5.15
2022-08-28T23:24:46.473Z,5.20
2022-08-28T23:27:35.478Z,5.53
2022-08-28T23:30:02.084Z,5.35
2022-08-28T23:32:29.678Z,5.32
2022-08-28T23:34:57.893Z,5.50
2022-08-28T23:37:25.472Z,5.70
2022-08-28T23:39:53.086Z,5.30
2022-08-28T23:42:22.273Z,5.25
2022-08-28T23:44:50.028Z,5.60
2022-08-28T23:47:17.612Z,5.13
2022-08-28T23:49:45.880Z,5.28
2022-08-28T23:52:13.432Z,5.43
2022-08-28T23:54:41.193Z,5.55
2022-08-28T23:57:09.184Z,5.43
2022-08-28T23:59:38.756Z,5.60
